Time;durP1;ratioP1;P1;durP2;ratioP2;P2;SDS_P1;SDS_P2;PMS_P1;PMS_P2;Temp;Humidity;BMP_temperature;BMP_pressure;BME280_temperature;BME280_humidity;BME280_pressure;Samples;Min_cycle;Max_cycle;Signal;HPM_P1;HPM_P2
2022/02/20 00:00:55;;;;;;;63.35;41.13;;;;;;;10.88;88.66;100471.34;5043225;28;20484;-80
2022/02/20 00:03:21;;;;;;;78.47;47.67;;;;;;;10.80;88.86;100455.63;5045363;28;20037;-80
2022/02/20 00:05:49;;;;;;;89.70;52.50;;;;;;;10.75;88.97;100453.91;5043815;28;20057;-80
2022/02/20 00:08:18;;;;;;;67.45;40.92;;;;;;;10.79;89.03;100451.22;5046150;28;20026;-80
2022/02/20 00:10:46;;;;;;;57.47;36.28;;;;;;;10.76;89.00;100449.97;5045177;28;20029;-80
2022/02/20 00:13:15;;;;;;;48.70;31.98;;;;;;;10.70;89.03;100456.94;5047529;28;20104;-80
2022/02/20 00:15:41;;;;;;;52.45;29.75;;;;;;;10.70;89.12;100456.94;5046013;28;20431;-80
2022/02/20 00:18:06;;;;;;;47.85;28.77;;;;;;;10.83;89.09;100466.06;5045792;28;20037;-80
2022/02/20 00:20:32;;;;;;;43.15;26.30;;;;;;;10.77;89.10;100462.72;5045011;28;20030;-80
2022/02/20 00:23:01;;;;;;;50.97;27.27;;;;;;;10.72;89.13;100465.78;5044498;28;20033;-80
2022/02/20 00:25:31;;;;;;;39.97;25.75;;;;;;;10.60;89.90;100451.91;5045665;28;20021;-80
2022/02/20 00:27:57;;;;;;;48.53;28.45;;;;;;;10.75;90.14;100465.03;5044989;28;20099;-80
2022/02/20 00:30:26;;;;;;;44.67;26.73;;;;;;;10.71;90.32;100461.38;5044601;28;20388;-80
2022/02/20 00:32:52;;;;;;;39.35;24.65;;;;;;;10.61;90.30;100445.19;5044425;28;20049;-81
2022/02/20 00:35:23;;;;;;;41.40;27.25;;;;;;;10.71;91.03;100447.47;5044430;28;20021;-80
2022/02/20 00:37:50;;;;;;;49.83;27.15;;;;;;;10.66;91.33;100450.50;5044753;28;20033;-80
2022/02/20 00:40:18;;;;;;;38.00;23.55;;;;;;;10.66;90.73;100444.94;5044105;28;20036;-80
2022/02/20 00:42:44;;;;;;;41.15;26.13;;;;;;;10.67;91.37;100449.34;5048829;28;20037;-80
2022/02/20 00:45:09;;;;;;;41.30;25.27;;;;;;;10.70;91.15;100445.81;5047772;28;20091;-81
2022/02/20 00:47:37;;;;;;;43.65;24.58;;;;;;;10.66;91.10;100451.31;5044618;28;20112;-80
2022/02/20 00:50:03;;;;;;;39.35;24.30;;;;;;;10.70;91.22;100457.75;5038325;28;20555;-81
2022/02/20 00:52:29;;;;;;;49.20;25.83;;;;;;;10.58;91.37;100448.69;5037215;28;20076;-80
2022/02/20 00:54:54;;;;;;;41.28;24.13;;;;;;;10.62;91.37;100450.41;5038225;28;20064;-80
2022/02/20 00:57:23;;;;;;;37.47;24.90;;;;;;;10.64;91.67;100469.50;5037289;28;20021;-80
2022/02/20 00:59:48;;;;;;;41.95;24.35;;;;;;;10.63;91.62;100463.16;5038517;28;20053;-81
2022/02/20 01:02:14;;;;;;;37.35;21.35;;;;;;;10.59;91.66;100461.44;5037950;28;20052;-80
2022/02/20 01:04:40;;;;;;;36.03;22.75;;;;;;;10.64;91.35;100469.50;5041021;28;20097;-80
2022/02/20 01:07:07;;;;;;;33.95;21.98;;;;;;;10.66;91.68;100461.63;5040715;28;20060;-80
2022/02/20 01:09:37;;;;;;;33.08;19.50;;;;;;;10.55;91.49;100436.31;5042148;28;20041;-81
2022/02/20 01:12:04;;;;;;;37.70;21.30;;;;;;;10.65;91.13;100455.28;5041814;28;20033;-80
2022/02/20 01:14:29;;;;;;;36.05;19.85;;;;;;;10.54;91.82;100439.44;5041838;28;20041;-80
2022/02/20 01:16:55;;;;;;;38.58;20.40;;;;;;;10.44;90.82;100419.34;5041476;28;20521;-80
2022/02/20 01:19:20;;;;;;;28.95;18.95;;;;;;;10.66;91.29;100450.50;5044421;28;20029;-80
2022/02/20 01:21:46;;;;;;;43.97;26.10;;;;;;;10.72;90.96;100449.06;5042168;28;20033;-80
2022/02/20 01:24:11;;;;;;;45.60;25.05;;;;;;;10.70;90.35;100435.50;5042106;28;20037;-80
2022/02/20 01:26:40;;;;;;;49.22;24.98;;;;;;;10.69;90.73;100439.44;5042127;28;20032;-80
2022/02/20 01:29:11;;;;;;;36.47;21.83;;;;;;;10.69;90.28;100433.09;5042020;28;20094;-80
2022/02/20 01:31:42;;;;;;;30.40;20.80;;;;;;;10.74;90.81;100422.50;5042915;28;20059;-80
2022/02/20 01:34:07;;;;;;;30.30;19.00;;;;;;;10.73;90.46;100418.09;5041968;28;20025;-80
2022/02/20 01:36:33;;;;;;;30.48;19.55;;;;;;;10.71;90.10;100408.50;5042361;28;20025;-80
2022/02/20 01:39:00;;;;;;;38.17;20.48;;;;;;;10.72;90.35;100405.34;5041401;28;20036;-80
2022/02/20 01:41:26;;;;;;;33.83;18.17;;;;;;;10.77;89.99;100400.69;5042497;28;20410;-80
2022/02/20 01:43:53;;;;;;;30.48;18.08;;;;;;;10.71;90.15;100402.94;5041485;28;20028;-80
2022/02/20 01:46:21;;;;;;;30.60;18.65;;;;;;;10.75;90.75;100401.03;5042558;28;20021;-80
2022/02/20 01:48:51;;;;;;;30.00;17.95;;;;;;;10.70;90.08;100404.06;5041751;28;20075;-80
2022/02/20 01:51:17;;;;;;;32.33;19.42;;;;;;;10.68;90.47;100398.06;5043464;28;20057;-80
2022/02/20 01:53:43;;;;;;;40.28;19.35;;;;;;;10.71;90.75;100422.41;5042034;28;20399;-80
2022/02/20 01:56:13;;;;;;;32.97;19.67;;;;;;;10.76;90.47;100419.38;5061233;28;20021;-80
2022/02/20 01:58:42;;;;;;;32.00;18.90;;;;;;;10.72;90.12;100404.56;5041425;28;20076;-80
2022/02/20 02:01:08;;;;;;;25.02;17.48;;;;;;;10.70;89.93;100406.88;5041897;28;20029;-80
2022/02/20 02:03:37;;;;;;;25.85;15.77;;;;;;;10.64;89.38;100414.66;5042359;28;20044;-80
2022/02/20 02:06:04;;;;;;;28.02;16.13;;;;;;;10.63;89.89;100407.50;5038222;28;20049;-80
2022/02/20 02:08:29;;;;;;;29.75;16.40;;;;;;;10.62;89.60;100407.84;5039595;28;20037;-80
2022/02/20 02:10:55;;;;;;;27.92;16.75;;;;;;;10.65;89.88;100416.31;5040329;28;20038;-80
2022/02/20 02:13:21;;;;;;;25.92;16.58;;;;;;;10.64;89.55;100419.44;5037557;28;20444;-80
2022/02/20 02:15:50;;;;;;;26.52;16.77;;;;;;;10.66;89.34;100426.28;5038351;28;20022;-80
2022/02/20 02:18:19;;;;;;;24.63;16.10;;;;;;;10.71;89.19;100422.41;5039311;28;20033;-80
2022/02/20 02:20:44;;;;;;;25.40;14.13;;;;;;;10.65;89.15;100412.69;5042098;28;20029;-81
2022/02/20 02:23:13;;;;;;;23.30;14.93;;;;;;;10.56;89.63;100412.06;5040447;28;20048;-80
2022/02/20 02:25:40;;;;;;;26.33;13.65;;;;;;;10.58;90.13;100420.84;5040563;28;20033;-80
2022/02/20 02:28:06;;;;;;;25.92;15.40;;;;;;;10.57;89.97;100420.06;5042800;28;20030;-80
2022/02/20 02:30:32;;;;;;;22.20;13.80;;;;;;;10.48;89.43;100405.50;5044532;28;20060;-80
2022/02/20 02:33:00;;;;;;;29.55;13.95;;;;;;;10.54;89.14;100414.38;5044706;28;20468;-80
2022/02/20 02:35:26;;;;;;;27.50;15.50;;;;;;;10.45;89.23;100404.25;5044445;28;20476;-80
2022/02/20 02:37:54;;;;;;;25.27;15.73;;;;;;;10.44;89.39;100410.19;5044695;28;20036;-80
2022/02/20 02:40:23;;;;;;;34.13;15.85;;;;;;;10.37;89.15;100405.22;5044957;28;20377;-80
2022/02/20 02:42:57;;;;;;;25.80;15.25;;;;;;;10.44;89.52;100404.63;5044698;28;20030;-80
2022/02/20 02:45:39;;;;;;;26.05;13.60;;;;;;;10.39;89.50;100397.34;5044621;28;20034;-80
2022/02/20 02:48:39;;;;;;;21.88;14.43;;;;;;;10.34;89.59;100394.81;5045897;28;20518;-80
2022/02/20 02:51:27;;;;;;;22.88;14.65;;;;;;;10.29;89.58;100386.72;5040901;28;20029;-80
2022/02/20 02:54:05;;;;;;;20.60;14.93;;;;;;;10.29;89.79;100386.72;5030472;28;20033;-80
2022/02/20 02:56:30;;;;;;;26.05;14.35;;;;;;;10.25;89.30;100385.00;5028216;28;20068;-80
2022/02/20 02:59:00;;;;;;;17.98;13.38;;;;;;;10.22;89.39;100372.56;5044631;28;20029;-80
2022/02/20 03:01:26;;;;;;;21.50;14.23;;;;;;;10.18;89.28;100377.25;5045014;28;20032;-80
2022/02/20 03:03:52;;;;;;;20.33;13.10;;;;;;;10.13;89.95;100374.72;5045209;28;20030;-80
2022/02/20 03:06:20;;;;;;;25.50;14.18;;;;;;;10.14;90.28;100379.13;5044744;28;20042;-80
2022/02/20 03:08:46;;;;;;;30.70;14.65;;;;;;;10.06;89.98;100366.19;5045231;28;20390;-80
2022/02/20 03:11:12;;;;;;;17.00;12.63;;;;;;;10.02;89.71;100373.63;5045707;28;20029;-81
2022/02/20 03:13:38;;;;;;;23.25;15.57;;;;;;;10.03;89.78;100366.91;5047914;28;20389;-80
2022/02/20 03:16:04;;;;;;;25.35;14.45;;;;;;;9.95;89.14;100363.09;5048465;28;20108;-80
2022/02/20 03:18:31;;;;;;;22.35;14.93;;;;;;;9.97;89.35;100369.94;5049239;28;20120;-81
2022/02/20 03:21:05;;;;;;;21.67;13.23;;;;;;;9.94;89.71;100376.19;5050153;28;20026;-80
2022/02/20 03:23:32;;;;;;;21.42;12.90;;;;;;;9.90;90.10;100377.25;5049807;28;20040;-80
2022/02/20 03:25:58;;;;;;;23.08;14.48;;;;;;;9.85;90.30;100383.84;5049136;28;20036;-80
2022/02/20 03:28:23;;;;;;;59.15;47.28;;;;;;;9.85;90.39;100381.09;5050121;28;20041;-80
2022/02/20 03:30:49;;;;;;;80.30;63.38;;;;;;;9.84;90.89;100382.25;5049706;28;20040;-80
2022/02/20 03:33:16;;;;;;;59.42;42.38;;;;;;;9.76;90.10;100377.66;5051088;28;20029;-80
2022/02/20 03:35:42;;;;;;;83.03;62.22;;;;;;;9.69;90.85;100364.38;5047450;28;20033;-80
2022/02/20 03:38:08;;;;;;;118.63;82.07;;;;;;;9.70;89.74;100371.53;5047195;28;20037;-80
2022/02/20 03:40:34;;;;;;;129.52;95.18;;;;;;;9.73;90.05;100370.03;5047548;28;20025;-80
2022/02/20 03:43:01;;;;;;;156.23;110.45;;;;;;;9.72;89.76;100379.53;5046916;28;20045;-80
2022/02/20 03:45:31;;;;;;;113.20;78.82;;;;;;;9.73;89.54;100375.56;5044736;28;20025;-80
2022/02/20 03:48:00;;;;;;;113.57;74.47;;;;;;;9.63;88.35;100370.50;5043740;28;20029;-80
2022/02/20 03:50:29;;;;;;;125.13;73.20;;;;;;;9.39;89.02;100341.66;5044512;28;20033;-81
2022/02/20 03:52:54;;;;;;;89.82;50.28;;;;;;;9.66;87.46;100364.25;5043732;28;20025;-80
2022/02/20 03:55:23;;;;;;;40.55;25.77;;;;;;;9.58;87.05;100366.00;5043713;28;20100;-80
2022/02/20 03:57:49;;;;;;;32.03;17.73;;;;;;;9.58;87.36;100367.97;5043633;28;20037;-81
2022/02/20 04:00:19;;;;;;;93.22;47.25;;;;;;;9.49;87.86;100370.09;5043569;28;20022;-80
2022/02/20 04:02:44;;;;;;;104.10;50.95;;;;;;;9.44;87.80;100369.19;5042243;28;20041;-80
2022/02/20 04:05:14;;;;;;;71.30;38.55;;;;;;;9.40;87.90;100370.22;5044055;28;20053;-80
2022/02/20 04:07:42;;;;;;;49.30;22.17;;;;;;;9.40;88.21;100379.38;5044429;28;20052;-81
2022/02/20 04:10:10;;;;;;;34.47;17.88;;;;;;;9.37;88.11;100380.06;5046864;28;20036;-80
2022/02/20 04:12:36;;;;;;;34.55;16.05;;;;;;;9.35;88.23;100376.03;5049685;28;20044;-80
2022/02/20 04:15:01;;;;;;;17.00;10.73;;;;;;;9.29;88.17;100382.97;5047627;28;20228;-80
2022/02/20 04:17:27;;;;;;;15.02;9.60;;;;;;;9.25;89.02;100380.09;5041922;28;20049;-80
2022/02/20 04:19:53;;;;;;;16.63;8.68;;;;;;;9.20;89.58;100380.31;5041881;28;20033;-80
2022/02/20 04:22:20;;;;;;;11.55;8.10;;;;;;;9.22;89.98;100383.56;5042950;28;20027;-81
2022/02/20 04:24:47;;;;;;;17.77;10.27;;;;;;;9.25;90.01;100382.88;5042937;28;20021;-81
2022/02/20 04:27:13;;;;;;;20.23;10.40;;;;;;;9.29;89.48;100385.75;5043670;28;20029;-80
2022/02/20 04:29:41;;;;;;;14.93;10.43;;;;;;;9.29;89.78;100386.56;5042548;28;20392;-80
2022/02/20 04:32:07;;;;;;;17.65;10.25;;;;;;;9.25;89.78;100376.50;5042184;28;20053;-80
2022/02/20 04:34:35;;;;;;;15.32;9.48;;;;;;;9.20;90.77;100369.22;5042576;28;20030;-80
2022/02/20 04:37:00;;;;;;;21.33;10.25;;;;;;;9.25;90.44;100388.41;5043376;28;20041;-80
2022/02/20 04:39:28;;;;;;;16.23;11.40;;;;;;;9.19;90.53;100373.16;5043523;28;20029;-80
2022/02/20 04:41:59;;;;;;;28.40;12.68;;;;;;;9.23;90.05;100385.19;5044477;28;20049;-80
2022/02/20 04:44:26;;;;;;;39.38;19.98;;;;;;;9.17;90.13;100381.84;5044240;28;20021;-80
2022/02/20 04:46:54;;;;;;;36.10;19.95;;;;;;;9.17;90.19;100369.94;5044465;28;20079;-80
2022/02/20 04:49:23;;;;;;;37.40;19.25;;;;;;;9.17;89.88;100381.03;5043159;28;20033;-81
2022/02/20 04:51:51;;;;;;;50.53;27.23;;;;;;;9.11;89.99;100376.88;5044466;28;20029;-80
2022/02/20 04:54:17;;;;;;;76.88;37.70;;;;;;;9.17;90.36;100375.47;5043641;28;20041;-80
2022/02/20 04:56:43;;;;;;;54.08;29.92;;;;;;;9.10;90.24;100376.03;5044021;28;20392;-81
2022/02/20 04:59:13;;;;;;;51.45;27.42;;;;;;;9.15;90.61;100377.78;5044765;28;20022;-81
2022/02/20 05:01:40;;;;;;;60.08;27.90;;;;;;;9.13;90.14;100369.81;5042962;28;20040;-80
2022/02/20 05:04:08;;;;;;;36.33;18.02;;;;;;;9.03;89.88;100380.56;5041482;28;20037;-80
2022/02/20 05:06:36;;;;;;;44.92;23.02;;;;;;;9.00;90.48;100373.75;5042398;28;20057;-80
2022/02/20 05:09:02;;;;;;;28.00;13.27;;;;;;;9.13;89.44;100374.56;5041512;28;20037;-80
2022/02/20 05:11:31;;;;;;;19.75;8.60;;;;;;;9.11;89.13;100365.78;5041491;28;20040;-81
2022/02/20 05:14:00;;;;;;;22.45;7.70;;;;;;;9.11;89.19;100371.31;5042357;28;20373;-81
2022/02/20 05:16:31;;;;;;;15.48;8.98;;;;;;;9.05;89.65;100369.91;5042519;28;20122;-81
2022/02/20 05:18:56;;;;;;;11.93;7.15;;;;;;;9.00;89.63;100359.06;5044275;28;20025;-81
2022/02/20 05:21:22;;;;;;;12.88;7.35;;;;;;;8.97;90.10;100376.41;5042464;28;20523;-81
2022/02/20 05:23:48;;;;;;;10.02;6.18;;;;;;;8.95;90.00;100382.31;5042332;28;20395;-80
2022/02/20 05:26:13;;;;;;;9.85;6.40;;;;;;;8.92;89.94;100386.59;5043029;28;20040;-80
2022/02/20 05:28:45;;;;;;;12.20;6.50;;;;;;;9.03;89.78;100388.91;5043368;28;20040;-81
2022/02/20 05:31:13;;;;;;;10.70;6.90;;;;;;;8.84;89.95;100362.56;5042061;28;20025;-80
2022/02/20 05:33:39;;;;;;;10.05;6.32;;;;;;;8.89;90.55;100381.75;5043351;28;20034;-81
2022/02/20 05:36:05;;;;;;;8.23;5.53;;;;;;;8.95;89.37;100373.16;5042705;28;20037;-81
2022/02/20 05:38:32;;;;;;;13.15;7.10;;;;;;;8.91;89.72;100378.63;5043603;28;20095;-81
2022/02/20 05:40:58;;;;;;;11.77;6.80;;;;;;;8.87;90.19;100386.81;5041917;28;20042;-81
2022/02/20 05:43:26;;;;;;;13.95;6.28;;;;;;;8.89;89.90;100403.94;5043248;28;20060;-81
2022/02/20 05:45:53;;;;;;;14.55;7.07;;;;;;;8.81;90.25;100413.16;5042853;28;20060;-81
2022/02/20 05:48:19;;;;;;;10.18;6.50;;;;;;;8.80;90.61;100416.31;5042842;28;20120;-81
2022/02/20 05:50:45;;;;;;;13.25;6.45;;;;;;;8.78;90.20;100413.84;5042959;28;20488;-81
2022/02/20 05:53:10;;;;;;;11.40;6.78;;;;;;;8.86;90.22;100415.72;5043192;28;20490;-82
2022/02/20 05:55:37;;;;;;;9.70;7.03;;;;;;;8.79;89.87;100409.09;5043363;28;20115;-81
2022/02/20 05:58:03;;;;;;;13.63;7.07;;;;;;;8.43;90.09;100354.41;5042878;28;20021;-81
2022/02/20 06:00:28;;;;;;;18.02;7.88;;;;;;;8.81;90.26;100431.78;5042793;28;20029;-81
2022/02/20 06:02:57;;;;;;;14.68;7.25;;;;;;;8.80;90.13;100430.97;5042547;28;20084;-81
2022/02/20 06:05:23;;;;;;;20.05;6.43;;;;;;;8.84;90.15;100443.03;5043614;28;20128;-80
2022/02/20 06:07:48;;;;;;;19.25;6.70;;;;;;;8.83;89.55;100448.88;5043696;28;20059;-81
2022/02/20 06:10:16;;;;;;;10.27;5.60;;;;;;;8.98;90.19;100455.75;5043691;28;20083;-80
2022/02/20 06:12:42;;;;;;;12.13;7.18;;;;;;;9.11;89.86;100451.84;5044717;28;20052;-81
2022/02/20 06:15:08;;;;;;;7.10;5.57;;;;;;;9.19;88.98;100457.25;5043956;28;20033;-81
2022/02/20 06:17:37;;;;;;;11.00;5.50;;;;;;;9.25;88.35;100474.47;5042635;28;20041;-81
2022/02/20 06:20:04;;;;;;;9.38;5.80;;;;;;;9.26;87.40;100451.09;5043566;28;20479;-80
2022/02/20 06:22:32;;;;;;;19.88;6.88;;;;;;;9.47;87.41;100472.41;5043677;28;20034;-81
2022/02/20 06:25:00;;;;;;;11.73;7.43;;;;;;;9.55;86.41;100477.03;5042209;28;20057;-81
2022/02/20 06:27:26;;;;;;;13.70;8.70;;;;;;;9.61;85.92;100484.78;5040960;28;20036;-80
2022/02/20 06:29:51;;;;;;;11.90;6.40;;;;;;;9.65;85.88;100493.22;5043155;28;20033;-80
2022/02/20 06:32:17;;;;;;;16.73;6.53;;;;;;;9.59;86.13;100486.28;5044220;28;20490;-81
2022/02/20 06:34:42;;;;;;;144.90;57.42;;;;;;;9.69;86.80;100483.00;5044047;28;20068;-80
2022/02/20 06:37:08;;;;;;;172.20;72.60;;;;;;;9.88;86.88;100488.78;5042401;28;20037;-80
2022/02/20 06:39:34;;;;;;;77.28;37.88;;;;;;;10.24;86.55;100481.53;5040700;28;20025;-80
2022/02/20 06:42:00;;;;;;;58.70;31.63;;;;;;;10.65;83.21;100490.59;5040918;28;20029;-80
2022/02/20 06:44:26;;;;;;;42.40;20.35;;;;;;;10.84;83.49;100489.94;5038469;28;20555;-80
2022/02/20 06:46:54;;;;;;;32.03;17.25;;;;;;;11.27;82.64;100501.00;5038152;28;20057;-80
2022/02/20 06:49:20;;;;;;;33.78;17.20;;;;;;;11.68;81.20;100490.44;5038664;28;20033;-80
2022/02/20 06:51:45;;;;;;;35.35;22.25;;;;;;;12.45;79.27;100500.09;5037761;28;20498;-80
2022/02/20 06:54:13;;;;;;;40.50;24.25;;;;;;;12.94;76.29;100497.44;5040696;28;20084;-80
2022/02/20 06:56:39;;;;;;;42.05;24.13;;;;;;;13.55;73.57;100495.72;5041415;28;20384;-80
2022/02/20 06:59:04;;;;;;;35.65;22.65;;;;;;;14.08;70.27;100496.50;5040657;28;20041;-80
2022/02/20 07:01:30;;;;;;;30.85;19.65;;;;;;;14.40;69.43;100496.13;5041623;28;20028;-80
2022/02/20 07:03:56;;;;;;;27.83;18.58;;;;;;;14.64;67.37;100495.63;5042515;28;20029;-79
2022/02/20 07:06:24;;;;;;;27.42;17.58;;;;;;;14.82;65.74;100500.63;5043701;28;20113;-79
2022/02/20 07:08:52;;;;;;;29.90;17.23;;;;;;;14.88;64.94;100504.69;5042751;28;20061;-79
2022/02/20 07:11:38;;;;;;;26.48;16.50;;;;;;;14.85;63.40;100488.63;5041578;28;20041;-79
2022/02/20 07:14:04;;;;;;;21.38;13.75;;;;;;;14.81;64.67;100504.63;5046265;28;20542;-80
2022/02/20 07:16:34;;;;;;;16.38;11.80;;;;;;;14.98;64.11;100504.00;5047611;28;20037;-80
2022/02/20 07:19:00;;;;;;;22.52;15.00;;;;;;;15.18;62.78;100519.41;5043180;28;20021;-80
2022/02/20 07:21:26;;;;;;;23.50;18.33;;;;;;;14.75;61.92;100514.53;5042989;28;20033;-80
2022/02/20 07:23:58;;;;;;;134.23;93.35;;;;;;;14.87;62.11;100514.28;5041417;28;20431;-80
2022/02/20 07:26:28;;;;;;;47.95;39.47;;;;;;;14.98;63.08;100517.19;5048322;28;20055;-80
2022/02/20 07:28:56;;;;;;;23.75;15.00;;;;;;;15.13;62.70;100518.97;5046744;28;20096;-80
2022/02/20 07:31:23;;;;;;;33.17;20.42;;;;;;;15.63;61.79;100514.59;5044606;28;20025;-80
2022/02/20 07:33:52;;;;;;;36.47;20.38;;;;;;;15.94;60.17;100513.22;5042714;28;20033;-80
2022/02/20 07:36:18;;;;;;;38.42;26.55;;;;;;;15.98;59.82;100516.06;5038822;28;20026;-80
2022/02/20 07:38:44;;;;;;;32.95;24.67;;;;;;;16.23;60.04;100511.38;5039776;28;20058;-80
2022/02/20 07:41:50;;;;;;;44.38;30.25;;;;;;;16.37;60.03;100509.84;5040212;28;20120;-79
2022/02/20 07:44:15;;;;;;;37.88;28.92;;;;;;;16.34;60.25;100516.22;5044707;28;20187;-77
2022/02/20 07:46:41;;;;;;;44.35;26.17;;;;;;;16.01;61.24;100511.66;5047749;28;20469;-78
2022/02/20 07:49:10;;;;;;;37.88;25.92;;;;;;;16.44;60.93;100515.47;5044303;28;20076;-78
2022/02/20 07:51:38;;;;;;;45.95;30.42;;;;;;;16.67;59.16;100513.19;5042867;28;20033;-78
2022/02/20 07:54:09;;;;;;;68.78;45.47;;;;;;;16.89;58.07;100514.06;5041964;28;20069;-80
2022/02/20 07:56:34;;;;;;;40.20;28.67;;;;;;;16.74;58.96;100516.03;5041471;28;20032;-78
2022/02/20 07:59:00;;;;;;;44.42;32.63;;;;;;;17.31;58.29;100512.53;5041004;28;20029;-77
2022/02/20 08:01:31;;;;;;;42.85;30.17;;;;;;;17.76;56.49;100513.72;5038082;28;20033;-78
2022/02/20 08:03:57;;;;;;;54.22;35.35;;;;;;;17.44;57.25;100518.53;5037996;28;20368;-78
2022/02/20 08:06:25;;;;;;;38.15;28.65;;;;;;;17.68;56.12;100526.16;5034970;28;20554;-78
2022/02/20 08:08:51;;;;;;;40.88;27.85;;;;;;;17.83;55.97;100529.81;5036912;28;20472;-79
2022/02/20 08:11:18;;;;;;;63.08;40.35;;;;;;;17.51;56.28;100533.41;5034843;28;20026;-79
2022/02/20 08:13:49;;;;;;;202.38;121.15;;;;;;;17.19;58.03;100533.38;5035229;28;20030;-77
2022/02/20 08:16:15;;;;;;;70.65;48.53;;;;;;;17.63;56.93;100554.72;5036033;28;20079;-78
2022/02/20 08:18:41;;;;;;;69.00;42.58;;;;;;;17.12;57.75;100544.63;5038349;28;20029;-78
2022/02/20 08:21:06;;;;;;;46.08;30.90;;;;;;;17.49;58.26;100551.91;5037637;28;20021;-78
2022/02/20 08:23:32;;;;;;;40.25;28.15;;;;;;;17.87;56.08;100550.31;5036930;28;20065;-78
2022/02/20 08:25:58;;;;;;;35.92;23.83;;;;;;;17.95;56.03;100551.09;5034497;28;20462;-78
2022/02/20 08:28:41;;;;;;;29.90;23.30;;;;;;;18.37;55.46;100549.41;5037229;28;20033;-78
2022/02/20 08:31:08;;;;;;;26.23;18.80;;;;;;;17.83;54.61;100551.50;5035600;28;20029;-78
2022/02/20 08:33:33;;;;;;;27.52;19.05;;;;;;;17.81;56.01;100543.47;5039429;28;20461;-78
2022/02/20 08:35:59;;;;;;;25.90;18.98;;;;;;;17.63;56.08;100551.09;5037403;28;20032;-78
2022/02/20 08:38:27;;;;;;;21.67;15.93;;;;;;;17.22;56.80;100521.34;5037684;28;20026;-78
2022/02/20 08:40:53;;;;;;;19.80;14.65;;;;;;;17.88;55.58;100553.94;5037631;28;20025;-78
2022/02/20 08:43:20;;;;;;;23.55;15.23;;;;;;;18.57;54.29;100539.25;5038205;28;20464;-77
2022/02/20 08:46:14;;;;;;;19.38;13.68;;;;;;;18.90;52.66;100543.56;5036285;28;20440;-77
2022/02/20 08:48:43;;;;;;;31.27;15.35;;;;;;;19.58;51.01;100543.91;5034746;28;20048;-78
2022/02/20 08:51:09;;;;;;;32.78;18.55;;;;;;;19.47;51.61;100536.75;5034264;28;20376;-78
2022/02/20 08:53:37;;;;;;;41.80;27.17;;;;;;;19.63;50.23;100534.22;5034331;28;20029;-79
2022/02/20 08:56:06;;;;;;;30.65;19.23;;;;;;;19.49;50.15;100528.66;5033628;28;20040;-78
2022/02/20 08:58:34;;;;;;;27.38;16.15;;;;;;;19.75;49.29;100533.69;5034015;28;20021;-79
2022/02/20 09:01:02;;;;;;;17.80;12.05;;;;;;;20.39;48.09;100527.38;5033636;28;20068;-79
2022/02/20 09:03:28;;;;;;;14.82;11.85;;;;;;;20.88;47.19;100528.03;5033290;28;20499;-78
2022/02/20 09:05:53;;;;;;;15.68;9.95;;;;;;;21.52;45.91;100531.09;5032915;28;20049;-79
2022/02/20 09:08:19;;;;;;;22.35;12.38;;;;;;;21.22;45.49;100532.78;5033470;28;20045;-78
2022/02/20 09:10:45;;;;;;;18.13;12.07;;;;;;;21.52;44.38;100548.09;5033127;28;20356;-79
2022/02/20 09:13:13;;;;;;;95.53;50.55;;;;;;;20.82;45.46;100545.88;5033061;28;20029;-78
2022/02/20 09:15:39;;;;;;;25.58;11.55;;;;;;;20.84;46.46;100535.75;5034799;28;20033;-78
2022/02/20 09:18:05;;;;;;;21.67;14.55;;;;;;;21.04;45.50;100535.88;5032616;28;20498;-79
2022/02/20 09:20:33;;;;;;;63.42;33.13;;;;;;;19.98;48.84;100533.09;5033305;28;20033;-79
2022/02/20 09:22:59;;;;;;;122.20;66.28;;;;;;;20.16;48.79;100532.91;5032624;28;20029;-79
2022/02/20 09:25:25;;;;;;;45.17;28.75;;;;;;;20.03;49.64;100534.69;5032823;28;20087;-80
2022/02/20 09:27:50;;;;;;;28.35;19.77;;;;;;;19.61;50.27;100536.66;5033214;28;20025;-80
2022/02/20 09:30:16;;;;;;;32.47;19.73;;;;;;;20.15;48.43;100534.94;5032822;28;20476;-79
2022/02/20 09:32:42;;;;;;;65.55;32.33;;;;;;;20.17;49.59;100533.69;5032496;28;20025;-79
2022/02/20 09:35:08;;;;;;;30.52;19.20;;;;;;;20.73;47.71;100520.16;5032431;28;20033;-79
2022/02/20 09:37:37;;;;;;;23.63;17.55;;;;;;;21.04;47.16;100535.06;5032334;28;20079;-78
2022/02/20 09:40:03;;;;;;;30.90;18.83;;;;;;;20.99;45.58;100522.22;5032472;28;20037;-78
2022/02/20 09:42:29;;;;;;;32.47;21.90;;;;;;;21.52;45.42;100531.09;5033011;28;20029;-77
2022/02/20 09:44:54;;;;;;;31.40;24.77;;;;;;;20.87;47.15;100523.56;5032540;28;20437;-79
2022/02/20 09:47:25;;;;;;;29.35;21.23;;;;;;;20.45;47.89;100536.19;5032543;28;20055;-78
2022/02/20 09:49:51;;;;;;;23.88;17.20;;;;;;;19.95;48.85;100511.34;5033927;28;20500;-78
2022/02/20 09:52:19;;;;;;;23.30;17.55;;;;;;;20.55;48.29;100526.03;5032028;28;20074;-78
2022/02/20 09:54:45;;;;;;;34.20;22.55;;;;;;;20.80;46.75;100532.16;5031869;28;20036;-79
2022/02/20 09:57:13;;;;;;;19.45;13.80;;;;;;;20.53;48.02;100534.13;5032117;28;20029;-79
2022/02/20 09:59:40;;;;;;;19.23;14.55;;;;;;;20.12;48.16;100538.59;5032164;28;20030;-79
2022/02/20 10:02:08;;;;;;;24.98;15.27;;;;;;;20.36;47.74;100550.84;5032088;28;20080;-78
2022/02/20 10:04:54;;;;;;;28.48;16.92;;;;;;;20.76;47.44;100545.53;5033551;28;20075;-78
2022/02/20 10:07:34;;;;;;;27.17;15.98;;;;;;;21.44;45.20;100545.38;5035960;28;20025;-79
2022/02/20 10:10:11;;;;;;;18.60;13.82;;;;;;;21.76;44.23;100546.88;5053503;28;20480;-78
2022/02/20 10:12:37;;;;;;;21.48;13.05;;;;;;;21.48;44.05;100538.88;5053282;28;20025;-79
2022/02/20 10:15:03;;;;;;;27.30;19.73;;;;;;;21.53;43.86;100549.72;5035411;28;20387;-78
2022/02/20 10:17:31;;;;;;;23.80;13.63;;;;;;;20.75;45.46;100557.28;5035786;28;20028;-78
2022/02/20 10:20:07;;;;;;;20.38;13.10;;;;;;;21.04;44.87;100554.84;5035349;28;20040;-79
2022/02/20 10:22:36;;;;;;;20.17;13.05;;;;;;;22.06;43.36;100570.66;5035257;28;20533;-78
2022/02/20 10:25:13;;;;;;;23.80;13.95;;;;;;;22.75;41.35;100580.28;5035354;28;20506;-78
2022/02/20 10:27:50;;;;;;;14.35;10.18;;;;;;;22.87;40.48;100573.94;5034822;28;20033;-78
2022/02/20 10:30:24;;;;;;;14.57;10.40;;;;;;;23.25;39.65;100562.19;5035486;28;20419;-78
2022/02/20 10:33:05;;;;;;;14.77;9.23;;;;;;;23.71;38.43;100575.31;5035145;28;20033;-78
2022/02/20 10:35:35;;;;;;;17.10;7.70;;;;;;;24.24;37.32;100575.16;5035476;28;20036;-78
2022/02/20 10:38:07;;;;;;;11.65;8.40;;;;;;;24.14;37.17;100573.41;5052972;28;20060;-78
2022/02/20 10:40:33;;;;;;;14.67;8.70;;;;;;;24.19;36.98;100579.34;5035999;28;20025;-78
2022/02/20 10:43:04;;;;;;;13.60;7.75;;;;;;;24.66;36.53;100570.34;5035441;28;20094;-79
2022/02/20 10:45:38;;;;;;;11.48;7.78;;;;;;;24.82;36.13;100567.44;5035034;28;20072;-78
2022/02/20 10:48:13;;;;;;;14.85;7.10;;;;;;;24.31;36.27;100572.13;5035500;28;20063;-78
2022/02/20 10:50:39;;;;;;;6.28;4.45;;;;;;;24.07;34.82;100584.94;5057139;28;20028;-78
2022/02/20 10:53:09;;;;;;;5.28;3.60;;;;;;;23.53;34.86;100583.41;5056477;28;20383;-79
2022/02/20 10:55:45;;;;;;;6.60;3.28;;;;;;;23.22;35.71;100578.06;5038843;28;20088;-79
2022/02/20 10:58:15;;;;;;;14.93;7.78;;;;;;;21.24;40.19;100578.41;5056476;28;20039;-79
2022/02/20 11:01:01;;;;;;;9.48;5.28;;;;;;;20.43;42.91;100586.69;5056465;28;20029;-78
2022/02/20 11:03:28;;;;;;;7.25;4.38;;;;;;;20.75;42.70;100585.56;5055727;28;20032;-80
2022/02/20 11:05:59;;;;;;;9.32;5.50;;;;;;;20.55;43.29;100583.34;5034428;28;20061;-78
2022/02/20 11:08:27;;;;;;;20.05;10.48;;;;;;;19.77;47.63;100562.34;5034765;28;20029;-81
2022/02/20 11:10:53;;;;;;;21.58;10.30;;;;;;;20.48;46.66;100565.69;5022027;28;20041;-78
2022/02/20 11:13:21;;;;;;;13.27;7.85;;;;;;;21.47;43.37;100580.53;5035159;28;20116;-80
2022/02/20 11:15:52;;;;;;;12.38;7.55;;;;;;;21.25;43.67;100585.66;5034588;28;20025;-80
2022/02/20 11:18:21;;;;;;;13.75;6.20;;;;;;;20.97;44.47;100586.06;5035258;28;20034;-79